createdAt,value
2023-04-08T00:00:36.965Z,5.88
2023-04-08T00:02:39.681Z,5.78
2023-04-08T00:04:42.575Z,6.40
2023-04-08T00:06:45.438Z,6.03
2023-04-08T00:08:48.140Z,6.05
2023-04-08T00:10:50.995Z,5.78
2023-04-08T00:12:53.569Z,6.68
2023-04-08T00:14:58.010Z,6.07
2023-04-08T00:17:00.698Z,6.20
2023-04-08T00:19:03.345Z,6.25
2023-04-08T00:21:05.995Z,5.90
2023-04-08T00:23:08.619Z,6.07
2023-04-08T00:25:11.163Z,6.15
2023-04-08T00:27:13.709Z,5.45
2023-04-08T00:29:16.258Z,6.47
2023-04-08T00:31:20.620Z,5.97
2023-04-08T00:33:24.848Z,5.95
2023-04-08T00:35:27.558Z,6.43
2023-04-08T00:37:30.099Z,7.30
2023-04-08T00:39:32.668Z,6.70
2023-04-08T00:41:35.760Z,6.60
2023-04-08T00:43:38.338Z,7.20
2023-04-08T00:45:40.883Z,7.72
2023-04-08T00:47:44.853Z,6.93
2023-04-08T00:49:47.451Z,7.78
2023-04-08T00:51:49.987Z,7.50
2023-04-08T00:53:52.529Z,6.57
2023-04-08T00:55:55.149Z,6.43
2023-04-08T00:57:58.205Z,7.10
2023-04-08T01:00:01.049Z,6.63
2023-04-08T01:02:13.717Z,6.72
2023-04-08T01:04:27.715Z,6.97
2023-04-08T01:06:35.206Z,6.70
2023-04-08T01:08:41.141Z,6.93
2023-04-08T01:10:45.953Z,6.97
2023-04-08T01:12:52.791Z,7.57
2023-04-08T01:15:01.476Z,6.38
2023-04-08T01:17:05.668Z,7.28
2023-04-08T01:19:09.819Z,6.80
2023-04-08T01:21:15.855Z,7.72
2023-04-08T01:23:24.416Z,7.40
2023-04-08T01:25:32.644Z,8.13
2023-04-08T01:27:37.498Z,8.68
2023-04-08T01:29:41.361Z,8.50
2023-04-08T01:31:45.329Z,9.20
2023-04-08T01:33:50.081Z,7.75
2023-04-08T01:35:54.029Z,7.35
2023-04-08T01:37:57.645Z,8.45
2023-04-08T01:40:01.826Z,8.70
2023-04-08T01:42:05.440Z,9.38
2023-04-08T01:44:10.263Z,9.05
2023-04-08T01:46:14.629Z,9.85
2023-04-08T01:48:17.424Z,10.68
2023-04-08T01:50:21.269Z,9.52
2023-04-08T01:52:26.411Z,9.55
2023-04-08T01:54:29.004Z,9.45
2023-04-08T01:56:34.298Z,11.18
2023-04-08T01:58:40.539Z,10.75
2023-04-08T02:00:45.429Z,10.43
2023-04-08T02:02:49.095Z,11.93
2023-04-08T02:04:51.928Z,12.45
2023-04-08T02:06:54.692Z,12.10
2023-04-08T02:08:57.727Z,11.60
2023-04-08T02:11:00.304Z,12.45
2023-04-08T02:13:03.413Z,13.10
2023-04-08T02:15:07.051Z,13.23
2023-04-08T02:17:14.628Z,12.50
2023-04-08T02:19:27.013Z,13.35
2023-04-08T02:21:37.435Z,13.73
2023-04-08T02:23:42.317Z,13.35
2023-04-08T02:25:47.761Z,13.60
2023-04-08T02:27:52.835Z,13.73
2023-04-08T02:29:58.031Z,13.68
2023-04-08T02:32:03.161Z,13.15
2023-04-08T02:34:09.273Z,13.30
2023-04-08T02:36:13.352Z,13.27
2023-04-08T02:38:16.215Z,12.05
2023-04-08T02:40:29.797Z,12.60
2023-04-08T02:42:32.349Z,14.20
2023-04-08T02:44:34.907Z,13.27
2023-04-08T02:46:37.445Z,12.65
2023-04-08T02:48:40.019Z,14.50
2023-04-08T02:50:46.941Z,12.80
2023-04-08T02:52:49.475Z,12.63
2023-04-08T02:54:52.010Z,13.43
2023-04-08T02:56:54.634Z,13.05
2023-04-08T02:58:57.188Z,12.60
2023-04-08T03:00:59.821Z,13.13
2023-04-08T03:03:02.570Z,12.40
2023-04-08T03:05:06.481Z,12.40
2023-04-08T03:07:10.390Z,11.48
2023-04-08T03:09:12.929Z,11.43
2023-04-08T03:11:15.454Z,11.52
2023-04-08T03:13:18.455Z,11.77
2023-04-08T03:15:21.224Z,11.60
2023-04-08T03:17:23.817Z,11.57
2023-04-08T03:19:26.369Z,12.60
2023-04-08T03:21:31.669Z,11.32
2023-04-08T03:23:35.740Z,11.75
2023-04-08T03:25:38.392Z,12.18
2023-04-08T03:27:40.996Z,11.20
2023-04-08T03:29:45.716Z,12.00
2023-04-08T03:31:48.375Z,11.13
2023-04-08T03:33:51.091Z,11.60
2023-04-08T03:35:54.829Z,11.55
2023-04-08T03:37:57.448Z,11.55
2023-04-08T03:40:01.774Z,11.13
2023-04-08T03:42:04.611Z,11.23
2023-04-08T03:44:07.250Z,11.43
2023-04-08T03:46:09.839Z,11.57
2023-04-08T03:48:12.418Z,11.10
2023-04-08T03:50:14.971Z,11.38
2023-04-08T03:52:17.501Z,11.77
2023-04-08T03:54:20.087Z,11.00
2023-04-08T03:56:25.068Z,12.18
2023-04-08T03:58:27.682Z,11.48
2023-04-08T04:00:30.222Z,11.63
2023-04-08T04:02:32.880Z,11.05
2023-04-08T04:04:36.904Z,11.85
2023-04-08T04:06:39.571Z,11.95
2023-04-08T04:08:42.125Z,11.70
2023-04-08T04:10:44.725Z,11.45
2023-04-08T04:12:48.719Z,12.68
2023-04-08T04:14:51.386Z,12.63
2023-04-08T04:16:53.974Z,11.88
2023-04-08T04:18:56.562Z,11.82
2023-04-08T04:20:59.145Z,12.82
2023-04-08T04:23:01.749Z,11.80
2023-04-08T04:25:04.352Z,12.45
2023-04-08T04:27:09.783Z,13.60
2023-04-08T04:29:13.657Z,11.77
2023-04-08T04:31:20.712Z,12.35
2023-04-08T04:33:23.343Z,12.30
2023-04-08T04:35:25.943Z,12.02
2023-04-08T04:37:28.561Z,12.52
2023-04-08T04:39:31.096Z,12.18
2023-04-08T04:41:35.214Z,13.20
2023-04-08T04:43:37.822Z,12.85
2023-04-08T04:45:41.806Z,12.85
2023-04-08T04:47:44.358Z,12.38
2023-04-08T04:49:47.441Z,12.75
2023-04-08T04:51:50.221Z,12.93
2023-04-08T04:53:52.770Z,12.75
2023-04-08T04:55:55.473Z,11.70
2023-04-08T04:57:58.028Z,11.45
2023-04-08T05:00:01.351Z,10.95
2023-04-08T05:02:06.707Z,11.95
2023-04-08T05:04:09.457Z,13.77
2023-04-08T05:06:12.321Z,13.05
2023-04-08T05:08:14.838Z,12.48
2023-04-08T05:10:17.358Z,12.38
2023-04-08T05:12:20.617Z,11.93
2023-04-08T05:14:23.176Z,12.10
2023-04-08T05:16:25.808Z,12.88
2023-04-08T05:18:29.694Z,12.52
2023-04-08T05:20:32.324Z,12.50
2023-04-08T05:22:35.406Z,11.60
2023-04-08T05:24:37.956Z,12.13
2023-04-08T05:26:40.591Z,12.43
2023-04-08T05:28:44.476Z,12.10
2023-04-08T05:30:50.528Z,14.73
2023-04-08T05:32:53.209Z,13.05
2023-04-08T05:34:57.257Z,14.27
2023-04-08T05:36:59.850Z,12.85
2023-04-08T05:39:03.463Z,14.23
2023-04-08T05:41:06.341Z,15.40
2023-04-08T05:43:08.897Z,14.93
2023-04-08T05:45:12.158Z,15.60
2023-04-08T05:47:14.866Z,15.80
2023-04-08T05:49:18.222Z,16.05
2023-04-08T05:51:22.091Z,15.85
2023-04-08T05:53:25.392Z,16.42
2023-04-08T05:55:28.165Z,16.67
2023-04-08T05:57:33.460Z,16.33
2023-04-08T05:59:36.224Z,17.15
2023-04-08T06:01:40.881Z,17.13
2023-04-08T06:03:43.700Z,15.90
2023-04-08T06:05:46.508Z,16.35
2023-04-08T06:07:50.485Z,16.58
2023-04-08T06:09:53.112Z,16.55
2023-04-08T06:11:57.417Z,15.27
2023-04-08T06:14:00.199Z,17.05
2023-04-08T06:16:12.613Z,16.02
2023-04-08T06:18:15.226Z,16.23
2023-04-08T06:20:17.780Z,16.25
2023-04-08T06:22:20.351Z,15.27
2023-04-08T06:24:24.325Z,15.32
2023-04-08T06:26:27.747Z,14.43
2023-04-08T06:28:30.768Z,14.10
2023-04-08T06:30:33.339Z,13.63
2023-04-08T06:32:35.918Z,14.63
2023-04-08T06:34:38.526Z,13.93
2023-04-08T06:36:41.536Z,15.93
2023-04-08T06:38:44.098Z,14.50
2023-04-08T06:40:48.003Z,13.65
2023-04-08T06:42:50.615Z,13.93
2023-04-08T06:44:53.208Z,12.82
2023-04-08T06:46:55.962Z,12.98
2023-04-08T06:48:58.519Z,14.30
2023-04-08T06:51:02.012Z,13.15
2023-04-08T06:53:04.562Z,12.38
2023-04-08T06:55:07.656Z,13.35
2023-04-08T06:57:11.709Z,14.75
2023-04-08T06:59:14.237Z,15.18
2023-04-08T07:01:17.732Z,13.60
2023-04-08T07:03:20.340Z,15.10
2023-04-08T07:05:22.920Z,14.75
2023-04-08T07:07:25.587Z,15.15
2023-04-08T07:09:28.347Z,16.05
2023-04-08T07:11:31.073Z,14.45
2023-04-08T07:13:34.996Z,15.13
2023-04-08T07:15:37.552Z,15.32
2023-04-08T07:17:40.431Z,14.15
2023-04-08T07:19:44.009Z,14.75
2023-04-08T07:21:46.931Z,14.63
2023-04-08T07:23:49.480Z,14.63
2023-04-08T07:25:52.463Z,13.23
2023-04-08T07:27:55.022Z,14.43
2023-04-08T07:29:58.913Z,14.02
2023-04-08T07:32:01.505Z,14.05
2023-04-08T07:34:04.072Z,13.68
2023-04-08T07:36:07.080Z,13.85
2023-04-08T07:38:11.561Z,12.73
2023-04-08T07:40:14.190Z,13.63
2023-04-08T07:42:16.716Z,12.95
2023-04-08T07:44:19.942Z,12.57
2023-04-08T07:46:23.938Z,13.55
2023-04-08T07:48:26.478Z,12.13
2023-04-08T07:50:29.026Z,12.98
2023-04-08T07:52:31.689Z,12.75
2023-04-08T07:54:34.952Z,11.63
2023-04-08T07:56:40.196Z,11.45
2023-04-08T07:58:43.564Z,10.43
2023-04-08T08:00:46.483Z,11.13
2023-04-08T08:02:50.466Z,10.40
2023-04-08T08:04:53.403Z,10.13
2023-04-08T08:06:55.991Z,10.35
2023-04-08T08:08:58.579Z,9.98
2023-04-08T08:11:01.109Z,9.73
2023-04-08T08:13:03.693Z,9.50
2023-04-08T08:15:07.689Z,10.13
2023-04-08T08:17:10.244Z,9.75
2023-04-08T08:19:14.567Z,9.95
2023-04-08T08:21:17.258Z,9.38
2023-04-08T08:23:19.858Z,9.13
2023-04-08T08:25:24.137Z,10.38
2023-04-08T08:27:28.469Z,9.27
2023-04-08T08:29:31.007Z,8.73
2023-04-08T08:31:33.599Z,9.15
2023-04-08T08:33:36.411Z,9.57
2023-04-08T08:35:40.317Z,8.43
2023-04-08T08:37:42.944Z,8.18
2023-04-08T08:39:45.496Z,9.32
2023-04-08T08:41:48.104Z,9.10
2023-04-08T08:43:51.085Z,8.98
2023-04-08T08:45:54.682Z,9.68
2023-04-08T08:47:57.448Z,9.02
2023-04-08T08:50:00.205Z,8.73
2023-04-08T08:52:04.129Z,8.23
2023-04-08T08:54:06.686Z,8.90
2023-04-08T08:58:15.800Z,9.65
2023-04-08T09:00:18.601Z,8.52
2023-04-08T09:02:26.832Z,8.85
2023-04-08T09:04:29.995Z,9.00
2023-04-08T09:06:32.767Z,8.65
2023-04-08T09:08:37.943Z,8.27
2023-04-08T09:10:40.487Z,8.23
2023-04-08T09:12:55.551Z,8.77
2023-04-08T09:15:05.438Z,8.52
2023-04-08T09:17:08.725Z,8.75
2023-04-08T09:19:12.279Z,9.70
2023-04-08T09:21:16.848Z,8.93
2023-04-08T09:23:19.434Z,9.98
2023-04-08T09:25:26.631Z,10.18
2023-04-08T09:27:36.229Z,9.23
2023-04-08T09:29:40.018Z,8.88
2023-04-08T09:31:42.652Z,9.43
2023-04-08T09:33:45.269Z,9.45
2023-04-08T09:35:47.979Z,11.15
2023-04-08T09:37:51.502Z,10.25
2023-04-08T09:39:54.106Z,9.63
2023-04-08T09:42:00.971Z,10.77
2023-04-08T09:44:05.687Z,10.50
2023-04-08T09:46:12.532Z,10.70
2023-04-08T09:48:19.276Z,10.68
2023-04-08T09:50:26.320Z,10.75
2023-04-08T09:52:34.440Z,10.07
2023-04-08T09:54:45.366Z,10.80
2023-04-08T09:56:52.477Z,11.40
2023-04-08T09:59:01.110Z,11.60
2023-04-08T10:01:03.859Z,10.85
2023-04-08T10:03:12.394Z,12.98
2023-04-08T10:05:16.861Z,12.73
2023-04-08T10:07:20.375Z,13.10
2023-04-08T10:09:23.483Z,11.77
2023-04-08T10:11:26.217Z,13.13
2023-04-08T10:13:29.626Z,12.93
2023-04-08T10:15:34.429Z,12.68
2023-04-08T10:17:37.152Z,12.48
2023-04-08T10:19:41.932Z,13.13
2023-04-08T10:21:48.482Z,13.57
2023-04-08T10:23:57.619Z,13.63
2023-04-08T10:26:00.185Z,14.40
2023-04-08T10:30:52.056Z,14.10
2023-04-08T10:32:56.361Z,12.30
2023-04-08T10:34:59.034Z,13.90
2023-04-08T10:37:02.215Z,14.07
2023-04-08T10:39:04.968Z,13.45
2023-04-08T10:41:09.573Z,12.05
2023-04-08T10:43:13.594Z,13.50
2023-04-08T10:45:19.284Z,13.68
2023-04-08T10:47:28.452Z,14.00
2023-04-08T10:49:35.577Z,12.45
2023-04-08T10:51:39.502Z,12.95
2023-04-08T10:53:42.123Z,13.13
2023-04-08T10:55:44.735Z,12.95
2023-04-08T10:57:47.358Z,13.80
2023-04-08T10:59:49.897Z,13.50
2023-04-08T11:01:52.489Z,13.63
2023-04-08T11:03:56.689Z,13.50
2023-04-08T11:05:59.630Z,13.93
2023-04-08T11:08:02.889Z,14.45
2023-04-08T11:10:05.995Z,14.10
2023-04-08T11:12:09.057Z,14.07
2023-04-08T11:14:12.116Z,13.52
2023-04-08T11:16:18.476Z,14.40
2023-04-08T11:18:22.771Z,13.80
2023-04-08T11:20:26.940Z,14.13
2023-04-08T11:22:30.945Z,14.30
2023-04-08T11:24:33.589Z,14.40
2023-04-08T11:26:37.725Z,14.18
2023-04-08T11:28:40.479Z,14.65
2023-04-08T11:30:43.866Z,14.02
2023-04-08T11:32:46.754Z,14.32
2023-04-08T11:34:49.583Z,14.13
2023-04-08T11:36:53.611Z,14.90
2023-04-08T11:38:56.436Z,14.05
2023-04-08T11:41:00.979Z,14.75
2023-04-08T11:43:10.720Z,13.23
2023-04-08T11:45:14.422Z,13.85
2023-04-08T11:47:17.154Z,13.95
2023-04-08T11:49:19.710Z,14.05
2023-04-08T11:51:22.392Z,13.68
2023-04-08T11:53:26.975Z,14.50
2023-04-08T11:55:30.845Z,13.52
2023-04-08T11:57:33.635Z,14.07
2023-04-08T11:59:36.329Z,14.32
2023-04-08T12:01:39.027Z,14.43
2023-04-08T12:03:55.092Z,14.20
2023-04-08T12:05:59.549Z,14.25
2023-04-08T12:08:02.322Z,13.20
2023-04-08T12:10:07.724Z,13.43
2023-04-08T12:12:10.247Z,13.60
2023-04-08T12:14:12.810Z,13.77
2023-04-08T12:16:15.382Z,14.02
2023-04-08T12:18:17.977Z,14.05
2023-04-08T12:20:20.767Z,13.98
2023-04-08T12:22:23.522Z,13.77
2023-04-08T12:24:29.426Z,13.27
2023-04-08T12:26:33.312Z,13.90
2023-04-08T12:28:36.318Z,13.40
2023-04-08T12:30:38.934Z,13.98
2023-04-08T12:32:42.669Z,14.05
2023-04-08T12:34:45.360Z,13.95
2023-04-08T12:36:49.140Z,14.35
2023-04-08T12:38:51.920Z,14.18
2023-04-08T12:40:55.282Z,14.27
2023-04-08T12:42:59.175Z,14.75
2023-04-08T12:45:01.782Z,14.35
2023-04-08T12:47:04.399Z,13.68
2023-04-08T12:49:07.274Z,13.15
2023-04-08T12:51:10.607Z,13.73
2023-04-08T12:53:13.258Z,13.65
2023-04-08T12:55:16.280Z,13.95
2023-04-08T12:57:18.835Z,14.13
2023-04-08T12:59:22.790Z,13.75
2023-04-08T13:01:25.666Z,14.50
2023-04-08T13:03:30.489Z,13.48
2023-04-08T13:07:42.708Z,13.52
2023-04-08T13:09:45.922Z,13.65
2023-04-08T13:11:48.470Z,13.48
2023-04-08T13:13:51.023Z,13.75
2023-04-08T13:15:55.171Z,13.73
2023-04-08T13:17:57.775Z,13.05
2023-04-08T13:20:00.744Z,14.00
2023-04-08T13:22:03.300Z,13.98
2023-04-08T13:24:06.656Z,13.48
2023-04-08T13:26:12.388Z,14.05
2023-04-08T13:28:15.568Z,13.45
2023-04-08T13:30:18.262Z,12.75
2023-04-08T13:32:22.225Z,13.35
2023-04-08T13:34:24.791Z,13.32
2023-04-08T13:36:28.379Z,13.40
2023-04-08T13:38:30.959Z,14.32
2023-04-08T13:40:33.481Z,14.30
2023-04-08T13:42:36.092Z,15.07
2023-04-08T13:44:39.198Z,14.65
2023-04-08T13:46:42.298Z,15.65
2023-04-08T13:48:46.220Z,14.95
2023-04-08T13:50:49.265Z,14.23
2023-04-08T13:52:51.816Z,13.82
2023-04-08T13:54:54.353Z,14.50
2023-04-08T13:56:57.539Z,14.35
2023-04-08T13:59:00.477Z,15.05
2023-04-08T14:01:03.520Z,15.13
2023-04-08T14:03:06.122Z,15.45
2023-04-08T14:05:10.430Z,14.95
2023-04-08T14:07:13.149Z,14.18
2023-04-08T14:09:15.713Z,14.77
2023-04-08T14:11:18.299Z,15.00
2023-04-08T14:13:20.938Z,15.50
2023-04-08T14:15:23.483Z,15.00
2023-04-08T14:17:26.168Z,14.98
2023-04-08T14:19:28.892Z,14.20
2023-04-08T14:21:32.913Z,14.73
2023-04-08T14:23:35.788Z,14.20
2023-04-08T14:25:38.296Z,15.02
2023-04-08T14:27:54.718Z,14.73
2023-04-08T14:30:00.381Z,13.45
2023-04-08T14:32:02.984Z,15.35
2023-04-08T14:34:05.521Z,15.10
2023-04-08T14:36:08.413Z,15.23
2023-04-08T14:38:12.527Z,14.73
2023-04-08T14:40:15.163Z,14.98
2023-04-08T14:42:18.339Z,14.95
2023-04-08T14:44:20.969Z,15.77
2023-04-08T14:46:24.507Z,15.38
2023-04-08T14:48:30.559Z,14.80
2023-04-08T14:50:33.676Z,15.88
2023-04-08T14:52:36.186Z,15.27
2023-04-08T14:54:41.120Z,15.20
2023-04-08T14:56:43.648Z,13.88
2023-04-08T14:58:46.180Z,15.20
2023-04-08T15:50:00.062Z,14.40
2023-04-08T15:52:02.628Z,14.02
2023-04-08T15:54:05.372Z,14.15
2023-04-08T15:56:12.813Z,13.73
2023-04-08T15:58:16.301Z,13.48
2023-04-08T16:00:18.975Z,13.35
2023-04-08T16:02:21.826Z,15.73
2023-04-08T16:04:24.623Z,14.55
2023-04-08T16:06:28.615Z,15.50
2023-04-08T16:08:33.242Z,14.45
2023-04-08T16:10:36.001Z,15.07
2023-04-08T16:12:38.548Z,14.43
2023-04-08T16:14:41.129Z,14.40
2023-04-08T16:16:43.854Z,13.50
2023-04-08T16:18:48.695Z,13.23
2023-04-08T16:20:51.382Z,12.45
2023-04-08T16:22:55.314Z,12.98
2023-04-08T16:24:58.484Z,11.63
2023-04-08T16:27:01.026Z,13.10
2023-04-08T16:29:03.579Z,11.73
2023-04-08T16:31:06.417Z,11.82
2023-04-08T16:33:09.067Z,12.05
2023-04-08T16:35:12.307Z,11.80
2023-04-08T16:37:15.009Z,10.73
2023-04-08T16:39:19.086Z,11.00
2023-04-08T16:41:21.772Z,11.38
2023-04-08T16:43:24.830Z,10.40
2023-04-08T16:45:29.631Z,9.50
2023-04-08T16:47:32.487Z,9.20
2023-04-08T16:49:35.058Z,10.35
2023-04-08T16:51:37.578Z,14.13
2023-04-08T16:53:40.972Z,13.82
2023-04-08T16:55:44.839Z,10.82
2023-04-08T16:57:47.560Z,11.90
2023-04-08T16:59:50.272Z,9.35
2023-04-08T17:01:52.986Z,8.68
2023-04-08T17:03:56.164Z,6.13
2023-04-08T17:06:06.917Z,6.25
2023-04-08T17:08:09.901Z,5.75
2023-04-08T17:10:12.560Z,6.18
2023-04-08T17:12:16.508Z,5.82
2023-04-08T17:14:19.049Z,5.70
2023-04-08T17:16:21.668Z,6.32
2023-04-08T17:18:24.258Z,5.97
2023-04-08T17:20:27.713Z,6.80
2023-04-08T17:22:30.260Z,6.50
2023-04-08T17:24:33.143Z,7.95
2023-04-08T17:26:41.526Z,7.57
2023-04-08T17:28:45.412Z,8.23
2023-04-08T17:30:48.301Z,6.82
2023-04-08T17:32:50.914Z,6.68
2023-04-08T17:34:53.688Z,7.00
2023-04-08T17:36:56.761Z,6.65
2023-04-08T17:38:59.290Z,7.07
2023-04-08T17:41:01.833Z,7.05
2023-04-08T17:43:04.404Z,6.97
2023-04-08T17:45:09.917Z,7.72
2023-04-08T17:47:12.480Z,7.95
2023-04-08T17:49:15.319Z,7.35
2023-04-08T17:51:19.760Z,7.13
2023-04-08T17:53:22.333Z,6.72
2023-04-08T17:55:25.781Z,8.50
2023-04-08T17:57:28.407Z,8.77
2023-04-08T17:59:31.069Z,10.80
2023-04-08T18:01:37.144Z,12.23
2023-04-08T18:03:39.818Z,9.18
2023-04-08T18:05:42.504Z,8.55
2023-04-08T18:07:45.283Z,11.30
2023-04-08T18:09:48.878Z,13.38
2023-04-08T18:11:51.408Z,10.07
2023-04-08T18:13:54.057Z,8.27
2023-04-08T18:15:56.621Z,7.85
2023-04-08T18:18:00.682Z,7.68
2023-04-08T18:20:03.351Z,7.82
2023-04-08T18:22:05.918Z,8.43
2023-04-08T18:24:09.309Z,9.18
2023-04-08T18:26:12.024Z,11.05
2023-04-08T18:28:17.339Z,9.20
2023-04-08T18:30:19.947Z,8.60
2023-04-08T18:32:22.534Z,8.35
2023-04-08T18:34:26.941Z,7.38
2023-04-08T18:36:29.505Z,7.88
2023-04-08T18:38:32.039Z,7.65
2023-04-08T18:40:34.644Z,8.40
2023-04-08T18:42:37.173Z,7.97
2023-04-08T18:44:39.766Z,7.70
2023-04-08T18:46:42.365Z,9.63
2023-04-08T18:48:44.969Z,8.60
2023-04-08T18:50:49.072Z,13.15
2023-04-08T18:52:51.668Z,23.90
2023-04-08T18:54:54.594Z,18.77
2023-04-08T18:56:57.206Z,12.88
2023-04-08T18:58:59.726Z,9.30
2023-04-08T19:01:07.866Z,8.85
2023-04-08T19:03:10.635Z,8.20
2023-04-08T19:05:13.273Z,9.38
2023-04-08T19:07:17.814Z,8.52
2023-04-08T19:09:20.456Z,9.02
2023-04-08T19:11:26.489Z,9.65
2023-04-08T19:13:29.160Z,8.35
2023-04-08T19:15:31.797Z,10.02
2023-04-08T19:17:34.402Z,9.80
2023-04-08T19:19:37.052Z,10.52
2023-04-08T19:21:40.320Z,9.93
2023-04-08T19:23:44.244Z,10.27
2023-04-08T19:25:47.305Z,9.55
2023-04-08T19:27:49.874Z,8.73
2023-04-08T19:29:52.397Z,9.02
2023-04-08T19:31:57.233Z,9.25
2023-04-08T19:33:59.751Z,8.75
2023-04-08T19:36:02.893Z,8.88
2023-04-08T19:38:05.679Z,8.82
2023-04-08T19:40:11.224Z,8.75
2023-04-08T19:42:13.784Z,9.32
2023-04-08T19:44:16.621Z,8.98
2023-04-08T19:46:19.209Z,10.07
2023-04-08T19:48:21.942Z,9.27
2023-04-08T19:50:25.419Z,9.85
2023-04-08T19:52:27.987Z,10.20
2023-04-08T19:54:30.781Z,10.18
2023-04-08T19:56:35.289Z,10.00
2023-04-08T19:58:37.965Z,9.43
2023-04-08T20:00:40.677Z,10.15
2023-04-08T20:02:43.414Z,9.50
2023-04-08T20:04:46.483Z,9.95
2023-04-08T20:06:49.100Z,9.70
2023-04-08T20:08:53.625Z,10.48
2023-04-08T20:10:56.510Z,10.32
2023-04-08T20:13:00.402Z,9.50
2023-04-08T20:15:03.245Z,10.05
2023-04-08T20:17:05.841Z,10.52
2023-04-08T20:19:08.379Z,9.80
2023-04-08T20:21:13.999Z,10.93
2023-04-08T20:23:17.717Z,11.07
2023-04-08T20:25:23.305Z,10.13
2023-04-08T20:27:26.376Z,10.50
2023-04-08T20:29:30.389Z,11.68
2023-04-08T20:31:34.061Z,10.70
2023-04-08T20:33:37.654Z,10.70
2023-04-08T20:35:40.822Z,10.93
2023-04-08T20:37:43.386Z,10.25
2023-04-08T20:39:45.932Z,11.43
2023-04-08T20:41:48.491Z,10.63
2023-04-08T20:43:52.473Z,11.30
2023-04-08T20:45:56.392Z,12.32
2023-04-08T20:47:59.347Z,11.02
2023-04-08T20:50:01.931Z,11.90
2023-04-08T20:52:04.612Z,12.00
2023-04-08T20:54:07.171Z,11.55
2023-04-08T20:56:12.129Z,11.13
2023-04-08T20:58:14.672Z,12.00
2023-04-08T21:00:17.998Z,11.55
2023-04-08T21:02:22.105Z,11.90
2023-04-08T21:04:24.749Z,11.05
2023-04-08T21:06:27.838Z,11.65
2023-04-08T21:08:30.373Z,12.35
2023-04-08T21:10:32.926Z,12.32
2023-04-08T21:12:35.469Z,12.18
2023-04-08T21:14:37.993Z,12.50
2023-04-08T21:16:40.663Z,12.82
2023-04-08T21:18:44.614Z,12.55
2023-04-08T21:20:49.942Z,11.27
2023-04-08T21:22:53.812Z,12.68
2023-04-08T21:24:56.999Z,12.15
2023-04-08T21:27:11.199Z,12.07
2023-04-08T21:29:13.927Z,12.60
2023-04-08T21:31:16.753Z,11.32
2023-04-08T21:33:27.384Z,11.25
2023-04-08T21:35:31.509Z,11.60
2023-04-08T21:37:34.592Z,11.88
2023-04-08T21:41:52.236Z,12.10
2023-04-08T21:47:16.275Z,11.23
2023-04-08T21:49:18.882Z,13.10
2023-04-08T21:51:22.774Z,11.60
2023-04-08T21:53:25.483Z,11.82
2023-04-08T21:55:29.300Z,12.38
2023-04-08T21:57:31.890Z,12.20
2023-04-08T21:59:34.449Z,13.00
2023-04-08T22:01:37.131Z,12.20
2023-04-08T22:03:39.891Z,11.20
2023-04-08T22:05:42.476Z,11.55
2023-04-08T22:07:46.366Z,11.90
2023-04-08T22:09:48.871Z,12.65
2023-04-08T22:11:51.394Z,12.25
2023-04-08T22:13:53.997Z,11.73
2023-04-08T22:15:56.509Z,12.50
2023-04-08T22:17:59.117Z,11.80
2023-04-08T22:20:01.680Z,12.10
2023-04-08T22:22:04.239Z,12.18
2023-04-08T22:24:08.192Z,12.55
2023-04-08T22:26:10.722Z,12.68
2023-04-08T22:28:13.283Z,13.45
2023-04-08T22:30:15.957Z,12.48
2023-04-08T22:32:18.709Z,13.55
2023-04-08T22:34:21.366Z,12.48
2023-04-08T22:36:23.887Z,12.38
2023-04-08T22:38:26.709Z,12.68
2023-04-08T22:40:30.859Z,12.27
2023-04-08T22:42:33.457Z,13.63
2023-04-08T22:44:36.001Z,12.77
2023-04-08T22:46:38.650Z,14.20
2023-04-08T22:48:41.655Z,13.38
2023-04-08T22:50:44.611Z,13.93
2023-04-08T22:52:47.181Z,13.20
2023-04-08T22:54:49.753Z,12.18
2023-04-08T22:56:55.818Z,12.35
2023-04-08T22:58:58.345Z,13.20
2023-04-08T23:01:01.829Z,13.32
2023-04-08T23:03:04.927Z,13.30
2023-04-08T23:05:08.758Z,13.77
2023-04-08T23:07:11.374Z,13.23
2023-04-08T23:09:13.919Z,13.00
2023-04-08T23:11:16.474Z,13.23
2023-04-08T23:13:20.844Z,13.05
2023-04-08T23:15:23.770Z,13.45
2023-04-08T23:17:26.540Z,13.40
2023-04-08T23:19:29.074Z,13.98
2023-04-08T23:21:31.647Z,13.13
2023-04-08T23:23:34.194Z,12.95
2023-04-08T23:25:37.124Z,12.18
2023-04-08T23:27:39.747Z,13.13
2023-04-08T23:29:43.634Z,13.50
2023-04-08T23:31:46.207Z,13.55
2023-04-08T23:33:48.767Z,14.30
2023-04-08T23:35:51.313Z,13.95
2023-04-08T23:37:53.864Z,15.18
2023-04-08T23:39:56.466Z,14.80
2023-04-08T23:41:59.069Z,14.60
2023-04-08T23:44:01.624Z,15.13
2023-04-08T23:46:05.626Z,14.02
2023-04-08T23:48:10.058Z,15.35
2023-04-08T23:50:12.891Z,14.55
2023-04-08T23:52:16.080Z,16.02
2023-04-08T23:54:18.586Z,14.27
2023-04-08T23:56:21.472Z,14.57
2023-04-08T23:58:24.020Z,14.32
